Valdosta, GA

6:00 PM EDT on August 29, 2016 (GMT -0400)
Audio Video and Security Inc. | | Change Station

Elev 220 ft 30.81 °N, 83.32 °W | Updated 1 minute ago

Scattered Clouds
Scattered Clouds
83.9 °F
Feels Like 91 °F
N
9.9
Wind Variable Wind from ENE

Today
High -- | Low -- °F
--% Chance of Precip.
Yesterday
High -- | Low -- °F
Precip. -- in
Pressure 29.97 in
Visibility 10.0 miles
Clouds Scattered Clouds 5500 ft
Heat Index 91 °F
Dew Point 74 °F
Humidity 73%
Rainfall 0.00 in
Snow Depth Not available.
7:08 AM 7:59 PM
Waning Crescent, 6% visible
METAR KVLD 292153Z 11007KT 080V140 10SM VCTS SCT055 33/23 A2996 RMK AO2 LTG DSNT NW-NE SLP149 T03330228
Pressure 29.97 in
Visibility 10.0 miles
Clouds Scattered Clouds 5500 ft
Heat Index 91 °F
Dew Point 74 °F
Humidity 73%
Rainfall 0.00 in
Snow Depth Not available.
7:08 AM 7:59 PM
Waning Crescent, 6% visible
METAR KVLD 292153Z 11007KT 080V140 10SM VCTS SCT055 33/23 A2996 RMK AO2 LTG DSNT NW-NE SLP149 T03330228
Tropical Depression Nine was centered about 170 miles west-southwest of Key West, Florida, as of late Monday morning. The depression may struggle a bit in the southern Gulf of Mexico before finally making a Gulf Coast landfall later this week with soaking rain and gusty winds.

This latest system was designated a tropical depression Sunday after a Hurricane Hunter reconnaissance mission finally found a sufficiently organized low-pressure center with collocated shower and thunderstorm activity.

10-Day Weather Forecast

Almanac

Astronomy

Aug. 29, 2016 Rise Set
Actual Time
Civil Twilight
Nautical Twilight
Astronomical Twilight
Moon
Length of Visible Light
Length of Day
Tomorrow will be .
, % of the Moon is Illuminated

Today's Extremes

State Highs State Lows

Community

WunderPhotos

Upload Photos

1,935,690 photos uploaded!

WunderBlog® & News

Nearby

Air Quality

  Air Quality AQ Index Pollutant
Not available.

Snow Depth

Station Depth Elevation

Earthquake Activity

City Distance Mag. Time & Date
Minimum magnitude displayed is 2.5.

Coastal Water Temperatures

Place Temperature

Stations

Nearby Weather Stations

Station Location Temp. Windchill Dew Point Humidity Wind Precip. Elev Updated Type
                   

Watches & Warnings

There are currently no watches in effect.